createdAt,value
2019-03-25T00:00:28.483Z,9.80
2019-03-25T00:02:56.756Z,9.70
2019-03-25T00:05:24.806Z,9.80
2019-03-25T00:07:52.807Z,9.80
2019-03-25T00:10:20.940Z,9.80
2019-03-25T00:12:49.020Z,9.80
2019-03-25T00:15:17.409Z,9.80
2019-03-25T00:17:45.681Z,9.80
2019-03-25T00:20:13.633Z,9.80
2019-03-25T00:22:41.752Z,9.00
2019-03-25T00:25:28.880Z,9.80
2019-03-25T00:28:16.052Z,10.00
2019-03-25T00:30:44.152Z,9.70
2019-03-25T00:33:12.397Z,9.70
2019-03-25T00:35:40.675Z,9.70
2019-03-25T00:38:08.652Z,9.30
2019-03-25T00:40:37.177Z,9.60
2019-03-25T00:43:24.348Z,9.70
2019-03-25T00:45:52.325Z,9.10
2019-03-25T00:48:20.380Z,9.60
2019-03-25T00:50:48.667Z,9.60
2019-03-25T00:53:16.645Z,9.60
2019-03-25T00:55:44.725Z,9.60
2019-03-25T00:58:12.770Z,8.80
2019-03-25T01:00:41.337Z,9.60
2019-03-25T01:03:09.428Z,9.60
2019-03-25T01:05:37.327Z,9.60
2019-03-25T01:08:05.608Z,9.60
2019-03-25T01:10:52.718Z,9.60
2019-03-25T01:13:20.863Z,9.80
2019-03-25T01:15:48.940Z,9.50
2019-03-25T01:18:17.552Z,9.50
2019-03-25T01:20:45.737Z,9.50
2019-03-25T01:23:13.821Z,9.50
2019-03-25T01:25:41.758Z,9.60
2019-03-25T01:28:09.804Z,9.60
2019-03-25T01:30:37.908Z,8.80
2019-03-25T01:33:05.812Z,9.50
2019-03-25T01:35:33.856Z,9.60
2019-03-25T01:38:01.816Z,9.50
2019-03-25T01:40:30.076Z,8.80
2019-03-25T01:42:58.053Z,9.60
2019-03-25T01:45:26.441Z,9.50
2019-03-25T01:47:54.496Z,9.60
2019-03-25T01:50:22.661Z,9.50
2019-03-25T01:52:50.693Z,9.50
2019-03-25T01:55:18.687Z,9.50
2019-03-25T01:57:46.832Z,9.50
2019-03-25T02:00:34.212Z,9.50
2019-03-25T02:03:02.239Z,9.30
2019-03-25T02:05:49.396Z,9.50
2019-03-25T02:08:19.619Z,9.20
2019-03-25T02:10:47.674Z,9.10
2019-03-25T02:13:15.968Z,8.90
2019-03-25T02:15:44.048Z,8.80
2019-03-25T02:18:12.010Z,8.80
2019-03-25T02:20:40.219Z,8.80
2019-03-25T02:23:10.060Z,8.70
2019-03-25T02:25:38.296Z,8.70
2019-03-25T02:28:06.263Z,8.70
2019-03-25T02:30:37.078Z,8.70
2019-03-25T02:33:05.100Z,8.70
2019-03-25T02:35:33.325Z,8.80
2019-03-25T02:38:04.396Z,8.80
2019-03-25T02:40:32.358Z,8.70
2019-03-25T02:43:19.529Z,8.70
2019-03-25T02:45:59.545Z,8.50
2019-03-25T02:48:27.735Z,8.40
2019-03-25T02:50:55.735Z,8.70
2019-03-25T02:53:28.727Z,8.70
2019-03-25T02:55:56.624Z,8.60
2019-03-25T02:58:43.868Z,8.70
2019-03-25T03:01:12.103Z,8.50
2019-03-25T03:03:40.089Z,8.70
2019-03-25T03:06:27.148Z,8.60
2019-03-25T03:08:55.182Z,8.30
2019-03-25T03:11:23.296Z,8.60
2019-03-25T03:13:51.298Z,8.60
2019-03-25T03:16:19.284Z,8.60
2019-03-25T03:18:47.274Z,8.70
2019-03-25T03:21:15.244Z,8.60
2019-03-25T03:23:43.112Z,8.60
2019-03-25T03:26:11.176Z,8.60
2019-03-25T03:28:59.995Z,8.60
2019-03-25T03:31:28.017Z,8.20
2019-03-25T03:33:56.149Z,8.50
2019-03-25T03:36:24.281Z,8.60
2019-03-25T03:38:52.174Z,8.40
2019-03-25T03:41:20.191Z,8.50
2019-03-25T03:43:48.226Z,8.60
2019-03-25T03:46:16.115Z,9.10
2019-03-25T03:49:03.203Z,8.60
2019-03-25T03:51:31.457Z,8.40
2019-03-25T03:53:59.297Z,8.60
2019-03-25T03:56:27.596Z,8.50
2019-03-25T03:59:14.895Z,8.50
2019-03-25T04:01:42.917Z,7.90
2019-03-25T04:04:10.821Z,8.40
2019-03-25T04:06:38.976Z,8.40
2019-03-25T04:09:06.984Z,8.40
2019-03-25T04:11:34.848Z,8.40
2019-03-25T04:14:02.929Z,8.40
2019-03-25T04:16:31.196Z,8.50
2019-03-25T04:18:59.127Z,8.50
2019-03-25T04:21:27.160Z,8.50
2019-03-25T04:23:55.077Z,8.50
2019-03-25T04:26:29.024Z,8.50
2019-03-25T04:28:52.859Z,8.50
2019-03-25T04:31:20.836Z,8.50
2019-03-25T04:33:48.951Z,8.40
2019-03-25T04:36:16.919Z,8.40
2019-03-25T04:39:05.471Z,8.40
2019-03-25T04:41:33.653Z,8.00
2019-03-25T04:44:01.679Z,8.30
2019-03-25T04:46:48.730Z,8.30
2019-03-25T04:49:16.653Z,7.70
2019-03-25T04:52:04.641Z,8.40
2019-03-25T04:54:32.762Z,8.20
2019-03-25T04:57:00.610Z,8.40
2019-03-25T04:59:28.665Z,8.40
2019-03-25T05:01:56.874Z,8.40
2019-03-25T05:04:24.834Z,8.40
2019-03-25T05:06:52.930Z,8.10
2019-03-25T05:09:20.906Z,8.30
2019-03-25T05:11:48.794Z,8.30
2019-03-25T05:14:16.936Z,8.30
2019-03-25T05:16:44.952Z,8.30
2019-03-25T05:19:12.871Z,8.30
2019-03-25T05:21:41.014Z,8.30
2019-03-25T05:24:08.931Z,8.40
2019-03-25T05:26:36.989Z,8.40
2019-03-25T05:29:05.119Z,8.40
2019-03-25T05:31:33.449Z,7.80
2019-03-25T05:34:01.410Z,8.40
2019-03-25T05:36:48.563Z,8.40
2019-03-25T05:39:35.837Z,8.30
2019-03-25T05:42:04.051Z,8.30
2019-03-25T05:44:32.075Z,8.40
2019-03-25T05:47:00.319Z,8.50
2019-03-25T05:49:28.414Z,8.50
2019-03-25T05:51:56.329Z,8.50
2019-03-25T05:54:24.450Z,7.80
2019-03-25T05:57:01.949Z,8.50
2019-03-25T05:59:22.356Z,8.40
2019-03-25T06:01:50.538Z,8.50
2019-03-25T06:04:18.466Z,8.50
2019-03-25T06:06:46.555Z,8.50
2019-03-25T06:09:14.736Z,8.50
2019-03-25T06:11:42.668Z,8.60
2019-03-25T06:14:10.705Z,8.50
2019-03-25T06:16:38.633Z,8.50
2019-03-25T06:19:06.740Z,8.50
2019-03-25T06:21:34.655Z,8.60
2019-03-25T06:24:02.631Z,8.50
2019-03-25T06:26:30.719Z,8.60
2019-03-25T06:28:58.906Z,8.20
2019-03-25T06:31:26.808Z,8.50
2019-03-25T06:33:54.865Z,8.60
2019-03-25T06:36:22.900Z,8.60
2019-03-25T06:38:50.792Z,8.00
2019-03-25T06:41:19.064Z,8.60
2019-03-25T06:43:47.434Z,8.60
2019-03-25T06:46:15.513Z,7.90
2019-03-25T06:48:43.716Z,8.50
2019-03-25T06:51:30.816Z,8.50
2019-03-25T06:53:58.777Z,8.30
2019-03-25T06:56:27.254Z,8.50
2019-03-25T06:59:14.628Z,8.60
2019-03-25T07:04:27.636Z,7.90
2019-03-25T07:06:55.791Z,8.60
2019-03-25T07:09:23.665Z,7.90
2019-03-25T07:11:51.879Z,8.80
2019-03-25T07:14:39.228Z,8.80
2019-03-25T07:17:07.169Z,8.00
2019-03-25T07:19:35.191Z,8.70
2019-03-25T07:22:03.153Z,8.40
2019-03-25T07:24:31.233Z,9.30
2019-03-25T07:26:59.796Z,8.50
2019-03-25T07:29:27.923Z,8.60
2019-03-25T07:31:55.970Z,8.60
2019-03-25T07:34:24.273Z,8.60
2019-03-25T07:36:52.267Z,8.70
2019-03-25T07:39:39.505Z,8.80
2019-03-25T07:42:07.736Z,8.70
2019-03-25T07:44:35.868Z,8.70
2019-03-25T07:47:03.769Z,8.80
2019-03-25T07:49:31.697Z,8.80
2019-03-25T07:51:59.681Z,8.90
2019-03-25T07:54:27.569Z,9.00
2019-03-25T07:57:14.729Z,9.00
2019-03-25T07:59:43.027Z,8.60
2019-03-25T08:02:10.985Z,9.00
2019-03-25T08:04:39.092Z,9.10
2019-03-25T08:07:07.288Z,9.00
2019-03-25T08:09:35.367Z,9.10
2019-03-25T08:12:03.440Z,9.20
2019-03-25T08:14:50.933Z,8.80
2019-03-25T08:17:18.954Z,9.00
2019-03-25T08:19:46.882Z,9.00
2019-03-25T08:22:15.192Z,9.10
2019-03-25T08:24:43.261Z,9.10
2019-03-25T08:27:11.112Z,9.20
2019-03-25T08:29:39.240Z,9.30
2019-03-25T08:32:07.236Z,9.40
2019-03-25T08:34:54.301Z,9.50
2019-03-25T08:37:22.226Z,9.10
2019-03-25T08:39:50.237Z,9.60
2019-03-25T08:42:18.223Z,9.50
2019-03-25T08:44:46.147Z,9.40
2019-03-25T08:47:14.227Z,9.50
2019-03-25T08:49:42.113Z,9.60
2019-03-25T08:52:10.070Z,9.80
2019-03-25T08:54:38.317Z,9.70
2019-03-25T08:57:06.243Z,9.60
2019-03-25T08:59:34.145Z,9.60
2019-03-25T09:02:21.221Z,9.50
2019-03-25T09:04:49.463Z,8.80
2019-03-25T09:07:17.531Z,9.50
2019-03-25T09:09:45.479Z,9.60
2019-03-25T09:12:13.579Z,9.60
2019-03-25T09:14:41.477Z,9.70
2019-03-25T09:17:09.402Z,9.80
2019-03-25T09:19:37.637Z,9.80
2019-03-25T09:22:05.610Z,9.80
2019-03-25T09:24:33.516Z,9.90
2019-03-25T09:29:46.422Z,9.70
2019-03-25T09:32:14.739Z,10.00
2019-03-25T09:34:42.636Z,9.90
2019-03-25T09:37:10.567Z,10.00
2019-03-25T09:39:57.736Z,10.00
2019-03-25T09:42:38.158Z,9.60
2019-03-25T09:45:18.658Z,9.60
2019-03-25T09:47:46.733Z,9.90
2019-03-25T09:50:14.680Z,10.20
2019-03-25T09:53:01.747Z,10.20
2019-03-25T09:55:29.854Z,10.00
2019-03-25T09:57:58.149Z,10.10
2019-03-25T10:00:30.102Z,10.50
2019-03-25T10:02:58.028Z,10.20
2019-03-25T10:05:25.979Z,10.30
2019-03-25T10:07:53.855Z,10.40
2019-03-25T10:10:21.679Z,10.40
2019-03-25T10:12:49.731Z,10.40
2019-03-25T10:15:17.883Z,10.60
2019-03-25T10:18:05.148Z,10.70
2019-03-25T10:20:33.208Z,10.00
2019-03-25T10:23:01.334Z,10.40
2019-03-25T10:25:29.403Z,10.50
2019-03-25T10:27:57.254Z,10.60
2019-03-25T10:30:25.350Z,10.80
2019-03-25T10:33:12.571Z,10.50
2019-03-25T10:38:25.859Z,9.80
2019-03-25T10:40:53.759Z,10.60
2019-03-25T10:43:21.769Z,10.80
2019-03-25T10:45:49.946Z,11.00
2019-03-25T10:48:17.845Z,10.70
2019-03-25T10:50:45.734Z,10.40
2019-03-25T10:53:13.891Z,10.30
2019-03-25T10:56:01.169Z,10.30
2019-03-25T10:58:29.143Z,9.70
2019-03-25T11:00:58.369Z,10.50
2019-03-25T11:03:26.335Z,10.50
2019-03-25T11:05:54.325Z,10.70
2019-03-25T11:08:22.473Z,10.60
2019-03-25T11:10:50.539Z,10.70
2019-03-25T11:13:18.510Z,10.60
2019-03-25T11:16:05.587Z,10.50
2019-03-25T11:18:33.781Z,9.70
2019-03-25T11:21:01.715Z,10.20
2019-03-25T11:23:29.744Z,10.10
2019-03-25T11:25:57.944Z,10.00
2019-03-25T11:28:25.847Z,10.20
2019-03-25T11:30:58.404Z,10.40
2019-03-25T11:33:26.272Z,11.30
2019-03-25T11:35:54.353Z,10.80
2019-03-25T11:38:41.533Z,11.00
2019-03-25T11:41:28.787Z,10.40
2019-03-25T11:43:56.704Z,11.10
2019-03-25T11:46:43.783Z,11.20
2019-03-25T11:49:11.670Z,11.20
2019-03-25T11:51:39.698Z,11.40
2019-03-25T11:54:07.933Z,11.20
2019-03-25T11:56:35.864Z,11.20
2019-03-25T11:59:03.966Z,11.30
2019-03-25T12:01:51.228Z,11.40
2019-03-25T12:04:19.182Z,11.30
2019-03-25T12:06:47.122Z,11.50
2019-03-25T12:09:15.352Z,11.50
2019-03-25T12:11:43.316Z,11.50
2019-03-25T12:14:11.295Z,11.50
2019-03-25T12:16:39.362Z,11.60
2019-03-25T12:19:07.359Z,11.60
2019-03-25T12:21:54.414Z,11.80
2019-03-25T12:24:22.316Z,11.20
2019-03-25T12:26:50.607Z,12.20
2019-03-25T12:29:29.323Z,12.20
2019-03-25T12:31:48.666Z,12.20
2019-03-25T12:34:16.653Z,11.70
2019-03-25T12:36:44.771Z,12.50
2019-03-25T12:39:12.853Z,12.50
2019-03-25T12:41:40.689Z,12.50
2019-03-25T12:44:27.755Z,12.60
2019-03-25T12:47:08.318Z,12.60
2019-03-25T12:49:36.293Z,12.00
2019-03-25T12:52:04.304Z,12.80
2019-03-25T12:54:32.343Z,12.70
2019-03-25T12:57:00.489Z,12.60
2019-03-25T12:59:28.456Z,11.90
2019-03-25T13:01:56.697Z,12.50
2019-03-25T13:04:24.762Z,12.60
2019-03-25T13:06:52.765Z,12.60
2019-03-25T13:09:21.191Z,12.80
2019-03-25T13:11:49.131Z,12.80
2019-03-25T13:14:17.130Z,12.90
2019-03-25T13:16:45.215Z,13.10
2019-03-25T13:19:13.216Z,13.20
2019-03-25T13:21:41.127Z,13.30
2019-03-25T13:24:09.228Z,13.20
2019-03-25T13:26:37.516Z,13.50
2019-03-25T13:29:05.486Z,13.60
2019-03-25T13:31:33.751Z,13.60
2019-03-25T13:34:01.800Z,13.60
2019-03-25T13:36:29.803Z,13.30
2019-03-25T13:38:58.086Z,13.30
2019-03-25T13:41:26.049Z,13.40
2019-03-25T13:43:54.096Z,13.20
2019-03-25T13:46:22.201Z,13.00
2019-03-25T13:48:50.075Z,13.00
2019-03-25T13:51:18.139Z,13.10
2019-03-25T13:53:46.201Z,13.10
2019-03-25T13:56:14.128Z,13.40
2019-03-25T13:58:41.988Z,13.50
2019-03-25T14:01:29.063Z,13.60
2019-03-25T14:03:57.273Z,13.20
2019-03-25T14:06:25.584Z,13.60
2019-03-25T14:08:55.717Z,12.40
2019-03-25T14:11:24.238Z,13.50
2019-03-25T14:13:52.456Z,13.30
2019-03-25T14:16:20.573Z,13.10
2019-03-25T14:18:48.489Z,13.00
2019-03-25T14:21:35.635Z,12.90
2019-03-25T14:24:03.706Z,12.10
2019-03-25T14:26:31.851Z,12.40
2019-03-25T14:29:18.913Z,12.40
2019-03-25T14:31:46.958Z,11.90
2019-03-25T14:34:15.531Z,12.10
2019-03-25T14:36:43.639Z,12.10
2019-03-25T14:39:11.551Z,12.00
2019-03-25T14:41:58.628Z,12.00
2019-03-25T14:44:26.867Z,11.30
2019-03-25T14:46:55.082Z,11.90
2019-03-25T14:49:22.948Z,11.90
2019-03-25T14:51:50.910Z,11.90
2019-03-25T14:54:18.987Z,11.90
2019-03-25T14:56:46.889Z,11.90
2019-03-25T14:59:14.926Z,11.90
2019-03-25T15:01:42.803Z,11.80
2019-03-25T15:04:10.670Z,11.80
2019-03-25T15:06:38.659Z,11.80
2019-03-25T15:09:06.876Z,11.80
2019-03-25T15:11:34.731Z,12.00
2019-03-25T15:14:21.822Z,11.90
2019-03-25T15:16:49.847Z,11.40
2019-03-25T15:19:17.764Z,12.20
2019-03-25T15:21:45.685Z,12.10
2019-03-25T15:24:13.619Z,12.20
2019-03-25T15:27:00.709Z,12.10
2019-03-25T15:29:28.876Z,11.80
2019-03-25T15:31:56.919Z,12.20
2019-03-25T15:34:24.927Z,12.20
2019-03-25T15:36:53.015Z,12.10
2019-03-25T15:39:20.910Z,12.10
2019-03-25T15:41:48.815Z,12.00
2019-03-25T15:44:16.959Z,12.00
2019-03-25T15:46:55.106Z,11.90
2019-03-25T15:49:15.101Z,11.80
2019-03-25T15:51:45.460Z,11.70
2019-03-25T15:54:13.552Z,11.70
2019-03-25T15:56:41.551Z,11.60
2019-03-25T15:59:28.696Z,11.60
2019-03-25T16:01:56.672Z,11.00
2019-03-25T16:04:25.019Z,11.60
2019-03-25T16:06:53.147Z,11.60
2019-03-25T16:09:21.060Z,11.60
2019-03-25T16:11:49.274Z,11.60
2019-03-25T16:14:36.545Z,11.50
2019-03-25T16:17:04.554Z,11.00
2019-03-25T16:19:32.394Z,11.40
2019-03-25T16:22:00.492Z,11.40
2019-03-25T16:24:28.467Z,11.40
2019-03-25T16:27:15.659Z,11.30
2019-03-25T16:29:43.619Z,11.30
2019-03-25T16:32:11.786Z,11.40
2019-03-25T16:34:58.930Z,11.40
2019-03-25T16:37:27.062Z,11.20
2019-03-25T16:39:54.966Z,11.50
2019-03-25T16:42:22.892Z,11.40
2019-03-25T16:44:50.939Z,11.40
2019-03-25T16:47:19.060Z,11.30
2019-03-25T16:49:46.965Z,11.30
2019-03-25T16:52:15.096Z,11.40
2019-03-25T16:54:43.454Z,11.30
2019-03-25T16:57:30.591Z,11.20
2019-03-25T16:59:58.512Z,11.10
2019-03-25T17:02:26.743Z,11.20
2019-03-25T17:04:56.995Z,11.20
2019-03-25T17:07:25.152Z,11.10
2019-03-25T17:09:53.100Z,11.10
2019-03-25T17:12:21.003Z,11.10
2019-03-25T17:14:48.999Z,11.00
2019-03-25T17:17:17.361Z,11.00
2019-03-25T17:19:45.368Z,10.90
2019-03-25T17:22:13.475Z,10.90
2019-03-25T17:24:41.572Z,10.90
2019-03-25T17:27:09.495Z,10.90
2019-03-25T17:29:56.562Z,10.80
2019-03-25T17:32:24.764Z,10.40
2019-03-25T17:34:52.965Z,10.60
2019-03-25T17:37:20.893Z,10.60
2019-03-25T17:39:49.191Z,10.60
2019-03-25T17:42:17.476Z,10.70
2019-03-25T17:44:45.541Z,10.60
2019-03-25T17:47:13.654Z,10.70
2019-03-25T17:49:41.636Z,10.60
2019-03-25T17:52:28.826Z,10.50
2019-03-25T17:54:56.878Z,9.80
2019-03-25T17:57:25.101Z,10.40
2019-03-25T18:00:12.917Z,10.40
2019-03-25T18:02:43.611Z,9.80
2019-03-25T18:05:11.769Z,10.30
2019-03-25T18:07:39.666Z,10.40
2019-03-25T18:10:07.775Z,10.40
2019-03-25T18:12:39.115Z,10.30
2019-03-25T18:15:07.947Z,10.30
2019-03-25T18:17:35.980Z,10.30
2019-03-25T18:20:05.007Z,10.30
2019-03-25T18:22:39.475Z,10.20
2019-03-25T18:25:03.240Z,10.10
2019-03-25T18:27:31.406Z,10.10
2019-03-25T18:29:59.337Z,10.10
2019-03-25T18:32:27.560Z,10.10
2019-03-25T18:34:55.447Z,10.10
2019-03-25T18:37:23.395Z,10.10
2019-03-25T18:39:51.553Z,10.10
2019-03-25T18:42:19.677Z,9.90
2019-03-25T18:44:47.642Z,10.00
2019-03-25T18:47:15.557Z,10.00
2019-03-25T18:49:44.495Z,9.90
2019-03-25T18:52:14.541Z,10.00
2019-03-25T18:54:42.654Z,10.00
2019-03-25T18:57:10.663Z,10.00
2019-03-25T18:59:38.892Z,10.00
2019-03-25T19:02:07.134Z,9.90
2019-03-25T19:04:35.030Z,9.80
2019-03-25T19:07:03.086Z,9.90
2019-03-25T19:09:31.215Z,9.90
2019-03-25T19:11:59.202Z,9.90
2019-03-25T19:14:29.349Z,10.00
2019-03-25T19:16:57.348Z,10.00
2019-03-25T19:19:25.219Z,9.90
2019-03-25T19:21:53.319Z,9.90
2019-03-25T19:24:21.552Z,9.80
2019-03-25T19:26:49.523Z,9.70
2019-03-25T19:29:17.525Z,9.80
2019-03-25T19:32:06.867Z,9.80
2019-03-25T19:34:34.696Z,9.10
2019-03-25T19:37:02.636Z,9.80
2019-03-25T19:39:30.776Z,9.80
2019-03-25T19:41:59.003Z,9.70
2019-03-25T19:44:26.954Z,9.80
2019-03-25T19:46:55.158Z,9.80
2019-03-25T19:49:23.242Z,9.80
2019-03-25T19:51:51.284Z,9.80
2019-03-25T19:54:19.300Z,9.70
2019-03-25T19:56:47.555Z,9.80
2019-03-25T19:59:15.543Z,9.80
2019-03-25T20:01:43.514Z,9.60
2019-03-25T20:04:11.761Z,9.80
2019-03-25T20:06:39.747Z,9.90
2019-03-25T20:09:07.682Z,9.80
2019-03-25T20:11:54.859Z,9.80
2019-03-25T20:14:24.425Z,9.50
2019-03-25T20:16:52.373Z,9.70
2019-03-25T20:19:20.501Z,9.70
2019-03-25T20:22:07.881Z,9.70
2019-03-25T20:24:35.853Z,9.50
2019-03-25T20:27:03.835Z,9.80
2019-03-25T20:29:34.870Z,9.70
2019-03-25T20:32:31.175Z,10.30
2019-03-25T20:34:51.897Z,9.40
2019-03-25T20:37:41.105Z,9.70
2019-03-25T20:40:11.009Z,9.60
2019-03-25T20:42:54.892Z,9.60
2019-03-25T20:45:42.334Z,9.70
2019-03-25T20:48:11.247Z,9.20
2019-03-25T20:50:39.305Z,9.70
2019-03-25T20:53:26.379Z,9.60
2019-03-25T20:55:54.668Z,9.00
2019-03-25T20:58:23.323Z,9.70
2019-03-25T21:00:55.812Z,9.70
2019-03-25T21:03:23.941Z,9.70
2019-03-25T21:05:51.885Z,9.70
2019-03-25T21:08:20.022Z,9.70
2019-03-25T21:10:48.229Z,9.70
2019-03-25T21:13:16.221Z,9.70
2019-03-25T21:16:03.509Z,9.70
2019-03-25T21:18:31.479Z,9.00
2019-03-25T21:20:59.669Z,9.70
2019-03-25T21:23:47.483Z,9.60
2019-03-25T21:26:15.470Z,9.50
2019-03-25T21:29:02.738Z,9.60
2019-03-25T21:31:49.941Z,9.20
2019-03-25T21:34:17.925Z,9.00
2019-03-25T21:36:46.223Z,9.60
2019-03-25T21:39:14.254Z,9.60
2019-03-25T21:41:42.386Z,9.70
2019-03-25T21:44:12.332Z,9.70
2019-03-25T21:46:40.440Z,9.70
2019-03-25T21:49:08.431Z,9.60
2019-03-25T21:51:36.449Z,9.70
2019-03-25T21:54:04.394Z,9.70
2019-03-25T21:56:32.359Z,9.70
2019-03-25T21:59:03.075Z,9.60
2019-03-25T22:01:31.277Z,9.60
2019-03-25T22:03:59.488Z,9.60
2019-03-25T22:06:28.579Z,9.60
2019-03-25T22:08:57.146Z,9.70
2019-03-25T22:11:25.028Z,9.70
2019-03-25T22:13:52.976Z,9.60
2019-03-25T22:16:21.064Z,9.50
2019-03-25T22:18:49.782Z,9.70
2019-03-25T22:21:17.714Z,9.60
2019-03-25T22:23:48.214Z,9.60
2019-03-25T22:26:38.406Z,9.60
2019-03-25T22:29:06.424Z,9.20
2019-03-25T22:31:34.379Z,9.50
2019-03-25T22:34:02.266Z,9.50
2019-03-25T22:36:50.459Z,9.50
2019-03-25T22:39:18.511Z,8.90
2019-03-25T22:41:46.505Z,9.60
2019-03-25T22:44:33.728Z,9.60
2019-03-25T22:47:01.762Z,8.60
2019-03-25T22:49:29.830Z,9.50
2019-03-25T22:52:17.396Z,9.60
2019-03-25T22:54:45.313Z,9.00
2019-03-25T22:57:13.190Z,9.40
2019-03-25T22:59:41.307Z,9.40
2019-03-25T23:02:09.355Z,9.40
2019-03-25T23:04:37.313Z,9.30
2019-03-25T23:07:05.226Z,9.40
2019-03-25T23:09:33.134Z,9.40
2019-03-25T23:12:01.080Z,9.40
2019-03-25T23:14:29.246Z,9.40
2019-03-25T23:16:57.211Z,9.40
2019-03-25T23:19:25.096Z,9.40
2019-03-25T23:21:53.063Z,9.30
2019-03-25T23:24:21.098Z,9.20
2019-03-25T23:27:08.221Z,9.20
2019-03-25T23:29:36.132Z,8.70
2019-03-25T23:32:04.020Z,9.10
2019-03-25T23:34:31.892Z,9.10
2019-03-25T23:36:59.737Z,9.20
2019-03-25T23:39:27.611Z,9.20
2019-03-25T23:41:55.716Z,9.30
2019-03-25T23:44:23.663Z,9.20
2019-03-25T23:47:10.740Z,9.20
2019-03-25T23:49:38.618Z,8.50
2019-03-25T23:52:06.587Z,9.10
2019-03-25T23:54:34.688Z,9.10
2019-03-25T23:57:02.671Z,9.20
2019-03-25T23:59:30.625Z,9.20
